Bristol, Tennessee
Current Conditions -  °F | °C
As of 10:55 PM on Sunday 23 Nov 2014 (Local Time) from KVJI Reporting Station
Broken Clouds Broken Clouds  
Wind Chill: 15°   Ceiling: 6500
Heat Index: 15°   Visibility: 10mi
Dew Point: 10°   Wind: 8mph
Humidity: 73%   Direction: 210°SSW
Pressure: 29.63"   Gusts: NA
Location:  36.59°N, 82.22°W
Report Text: KVJI 240355Z AUTO 21007KT 10SM BKN065 15/10 A2963 RMK AO2 T01510102
Loading
Personal Weather Stations






























Interactive Weather Map New forecast layout! Learn more

10-Day Weather Forecast

Advertisements
Track Severe Weather on mobile